Time;durP1;ratioP1;P1;durP2;ratioP2;P2;SDS_P1;SDS_P2;PMS_P1;PMS_P2;Temp;Humidity;BMP_temperature;BMP_pressure;BME280_temperature;BME280_humidity;BME280_pressure;Samples;Min_cycle;Max_cycle;Signal;HPM_P1;HPM_P2
2023/10/09 00:01:26;;;;;;;;;;;14.40;99.90;;;;;;5094388;28;19949;-33
2023/10/09 00:03:55;;;;;;;;;;;14.40;99.90;;;;;;5073728;28;20359;-32
2023/10/09 00:06:30;;;;;;;;;;;14.50;99.90;;;;;;5072645;28;19965;-32
2023/10/09 00:08:57;;;;;;;;;;;14.40;99.90;;;;;;5073181;28;19992;-31
2023/10/09 00:11:29;;;;;;;;;;;14.50;99.90;;;;;;5084908;28;19979;-34
2023/10/09 00:13:58;;;;;;;;;;;14.40;99.90;;;;;;5075530;28;19968;-33
2023/10/09 00:16:32;;;;;;;;;;;14.40;99.90;;;;;;5074538;28;20446;-32
2023/10/09 00:19:13;;;;;;;;;;;14.50;99.90;;;;;;5078123;28;19985;-31
2023/10/09 00:21:40;;;;;;;;;;;14.40;99.90;;;;;;5092480;28;19952;-32
2023/10/09 00:24:13;;;;;;;;;;;14.50;99.90;;;;;;5079162;28;19997;-33
2023/10/09 00:26:45;;;;;;;;;;;14.40;99.90;;;;;;5073847;28;19949;-32
2023/10/09 00:29:21;;;;;;;;;;;14.40;99.90;;;;;;5073926;28;19941;-32
2023/10/09 00:31:54;;;;;;;;;;;14.40;99.90;;;;;;5072843;28;20316;-32
2023/10/09 00:34:22;;;;;;;;;;;14.40;99.90;;;;;;5073689;28;19942;-31
2023/10/09 00:36:51;;;;;;;;;;;14.40;99.90;;;;;;5073231;28;20392;-32
2023/10/09 00:39:31;;;;;;;;;;;14.40;99.90;;;;;;5082781;28;19949;-32
2023/10/09 00:42:00;;;;;;;;;;;14.40;99.90;;;;;;5092816;28;19949;-31
2023/10/09 00:44:37;;;;;;;;;;;14.40;99.90;;;;;;5092533;28;19945;-32
2023/10/09 00:47:20;;;;;;;;;;;14.40;99.90;;;;;;5093698;28;20293;-32
2023/10/09 00:49:49;;;;;;;;;;;14.40;99.90;;;;;;5073508;28;19944;-32
2023/10/09 00:52:24;;;;;;;;;;;14.40;99.90;;;;;;5075099;28;19959;-32
2023/10/09 00:54:51;;;;;;;;;;;14.40;99.90;;;;;;5085312;28;19944;-31
2023/10/09 00:57:24;;;;;;;;;;;14.40;99.90;;;;;;5073152;28;20026;-32
2023/10/09 00:59:59;;;;;;;;;;;14.30;99.90;;;;;;5072566;28;19965;-31
2023/10/09 01:02:35;;;;;;;;;;;14.30;99.90;;;;;;5071895;28;19943;-32
2023/10/09 01:05:10;;;;;;;;;;;14.30;99.90;;;;;;5071983;28;20346;-32
2023/10/09 01:07:38;;;;;;;;;;;14.30;99.90;;;;;;5073379;28;19940;-32
2023/10/09 01:10:33;;;;;;;;;;;14.30;99.90;;;;;;5071813;28;19947;-32
2023/10/09 01:12:56;;;;;;;;;;;14.30;99.90;;;;;;5072295;28;20448;-32
2023/10/09 01:15:43;;;;;;;;;;;14.30;99.90;;;;;;5089323;28;19984;-31
2023/10/09 01:18:11;;;;;;;;;;;14.30;99.90;;;;;;5125857;27;19952;-32
2023/10/09 01:20:41;;;;;;;;;;;14.20;99.90;;;;;;5086016;28;19944;-34
2023/10/09 01:23:12;;;;;;;;;;;14.30;99.90;;;;;;5077105;28;20319;-32
2023/10/09 01:25:49;;;;;;;;;;;14.20;99.90;;;;;;5076784;28;20004;-32
2023/10/09 01:28:16;;;;;;;;;;;14.20;99.90;;;;;;5071679;28;19947;-32
2023/10/09 01:30:43;;;;;;;;;;;14.20;99.90;;;;;;5071685;28;19950;-32
2023/10/09 01:33:21;;;;;;;;;;;14.20;99.90;;;;;;5071334;28;19995;-32
2023/10/09 01:35:50;;;;;;;;;;;14.20;99.90;;;;;;5072883;28;20292;-31
2023/10/09 01:38:30;;;;;;;;;;;14.20;99.90;;;;;;5072605;28;20374;-32
2023/10/09 01:41:06;;;;;;;;;;;14.20;99.90;;;;;;5071926;28;19976;-33
2023/10/09 01:43:34;;;;;;;;;;;14.20;99.90;;;;;;5071322;28;19991;-32
2023/10/09 01:46:01;;;;;;;;;;;14.20;99.90;;;;;;5072204;28;19957;-32
2023/10/09 01:48:27;;;;;;;;;;;14.20;99.90;;;;;;5072581;28;20035;-32
2023/10/09 01:50:54;;;;;;;;;;;14.20;99.90;;;;;;5071146;28;19996;-32
2023/10/09 01:53:28;;;;;;;;;;;14.20;99.90;;;;;;5071031;28;20489;-32
2023/10/09 01:55:55;;;;;;;;;;;14.20;99.90;;;;;;5071622;28;19942;-32
2023/10/09 01:58:27;;;;;;;;;;;14.20;99.90;;;;;;5072194;28;20315;-33
2023/10/09 02:00:55;;;;;;;;;;;14.20;99.90;;;;;;5071723;28;20418;-33
2023/10/09 02:03:24;;;;;;;;;;;14.20;99.90;;;;;;5084459;28;20036;-32
2023/10/09 02:05:51;;;;;;;;;;;14.20;99.90;;;;;;5087217;28;19990;-32
2023/10/09 02:08:21;;;;;;;;;;;14.20;99.90;;;;;;5072216;28;19943;-32
2023/10/09 02:10:50;;;;;;;;;;;14.20;99.90;;;;;;5071291;28;20295;-34
2023/10/09 02:13:17;;;;;;;;;;;14.20;99.90;;;;;;5077330;28;20033;-33
2023/10/09 02:15:51;;;;;;;;;;;14.20;99.90;;;;;;5072446;28;19991;-32
2023/10/09 02:18:18;;;;;;;;;;;14.20;99.90;;;;;;5072388;28;19949;-32
2023/10/09 02:20:46;;;;;;;;;;;14.20;99.90;;;;;;5092101;28;20400;-31
2023/10/09 02:23:13;;;;;;;;;;;14.20;99.90;;;;;;5090298;28;20431;-33
2023/10/09 02:25:45;;;;;;;;;;;14.20;99.90;;;;;;5082572;28;19941;-33
2023/10/09 02:28:18;;;;;;;;;;;14.20;99.90;;;;;;5076993;28;19946;-32
2023/10/09 02:30:47;;;;;;;;;;;14.20;99.90;;;;;;5076961;28;20444;-33
2023/10/09 02:33:18;;;;;;;;;;;14.20;99.90;;;;;;5071572;28;20427;-32
2023/10/09 02:35:50;;;;;;;;;;;14.20;99.90;;;;;;5074912;28;19979;-32
2023/10/09 02:38:17;;;;;;;;;;;14.20;99.90;;;;;;5074995;28;19945;-32
2023/10/09 02:41:07;;;;;;;;;;;14.20;99.90;;;;;;5075887;28;19938;-32
2023/10/09 02:43:44;;;;;;;;;;;14.20;99.90;;;;;;5075516;28;20001;-33
2023/10/09 02:46:14;;;;;;;;;;;14.20;99.90;;;;;;5074924;28;19953;-33
2023/10/09 02:48:45;;;;;;;;;;;14.20;99.90;;;;;;5074480;28;19950;-32
2023/10/09 02:51:21;;;;;;;;;;;14.20;99.90;;;;;;5074080;28;20433;-33
2023/10/09 02:53:49;;;;;;;;;;;14.20;99.90;;;;;;5073824;28;19967;-35
2023/10/09 02:56:18;;;;;;;;;;;14.20;99.90;;;;;;5075306;28;20393;-32
2023/10/09 02:58:48;;;;;;;;;;;14.20;99.90;;;;;;5074336;28;19993;-32
2023/10/09 03:01:14;;;;;;;;;;;14.20;99.90;;;;;;5077915;28;19947;-34
2023/10/09 03:03:45;;;;;;;;;;;14.20;99.90;;;;;;5075375;28;20466;-33
2023/10/09 03:06:12;;;;;;;;;;;14.20;99.90;;;;;;5073599;28;20391;-33
2023/10/09 03:08:40;;;;;;;;;;;14.20;99.90;;;;;;5080763;28;19940;-33
2023/10/09 03:11:12;;;;;;;;;;;14.20;99.90;;;;;;5093521;28;19955;-33
2023/10/09 03:13:42;;;;;;;;;;;14.20;99.90;;;;;;5127203;27;19963;-32
2023/10/09 03:16:14;;;;;;;;;;;14.20;99.90;;;;;;5077352;28;19946;-32
2023/10/09 03:18:41;;;;;;;;;;;14.20;99.90;;;;;;5084070;28;19940;-32
2023/10/09 03:21:08;;;;;;;;;;;14.20;99.90;;;;;;5089308;28;19942;-32
2023/10/09 03:23:35;;;;;;;;;;;14.30;99.90;;;;;;5073879;28;20395;-33
2023/10/09 03:26:03;;;;;;;;;;;14.30;99.90;;;;;;5074575;28;20442;-33
2023/10/09 03:28:30;;;;;;;;;;;14.30;99.90;;;;;;5074662;28;20338;-32
2023/10/09 03:30:59;;;;;;;;;;;14.30;99.90;;;;;;5080514;28;19951;-32
2023/10/09 03:33:27;;;;;;;;;;;14.30;99.90;;;;;;5087845;28;20037;-33
2023/10/09 03:35:55;;;;;;;;;;;14.30;99.90;;;;;;5073623;28;19993;-32
2023/10/09 03:38:22;;;;;;;;;;;14.30;99.90;;;;;;5074666;28;19985;-32
2023/10/09 03:40:48;;;;;;;;;;;14.30;99.90;;;;;;5073561;28;19950;-33
2023/10/09 03:43:16;;;;;;;;;;;14.30;99.90;;;;;;5085402;28;19983;-33
2023/10/09 03:45:52;;;;;;;;;;;14.40;99.90;;;;;;5093601;28;19944;-32
2023/10/09 03:48:25;;;;;;;;;;;14.40;99.90;;;;;;5093359;28;19946;-33
2023/10/09 03:51:08;;;;;;;;;;;14.40;99.90;;;;;;5094682;28;20083;-32
2023/10/09 03:53:36;;;;;;;;;;;14.40;99.90;;;;;;5093394;28;19960;-31
2023/10/09 03:56:05;;;;;;;;;;;14.40;99.90;;;;;;5093375;28;20411;-31
2023/10/09 03:58:33;;;;;;;;;;;14.40;99.90;;;;;;5093298;28;19949;-32
2023/10/09 04:01:00;;;;;;;;;;;14.50;99.90;;;;;;5086664;28;20312;-32
2023/10/09 04:03:27;;;;;;;;;;;14.50;99.90;;;;;;5076926;28;19952;-32
2023/10/09 04:05:55;;;;;;;;;;;14.50;99.90;;;;;;5085313;28;19972;-33
2023/10/09 04:08:29;;;;;;;;;;;14.50;99.90;;;;;;5080097;28;20001;-32
2023/10/09 04:11:01;;;;;;;;;;;14.60;99.90;;;;;;5085877;28;19949;-33
2023/10/09 04:13:33;;;;;;;;;;;14.50;99.90;;;;;;5082923;28;19968;-31
2023/10/09 04:16:08;;;;;;;;;;;14.60;99.90;;;;;;5070312;28;20399;-35
2023/10/09 04:18:38;;;;;;;;;;;14.50;99.90;;;;;;5089620;28;20029;-32
2023/10/09 04:21:18;;;;;;;;;;;14.60;99.90;;;;;;5083340;28;19966;-34
2023/10/09 04:24:09;;;;;;;;;;;14.60;99.90;;;;;;5087158;28;19963;-32
2023/10/09 04:26:37;;;;;;;;;;;14.60;99.90;;;;;;5081232;28;19943;-32
2023/10/09 04:29:04;;;;;;;;;;;14.60;99.90;;;;;;5096736;28;20003;-32
2023/10/09 04:31:37;;;;;;;;;;;14.70;99.90;;;;;;5091441;28;19990;-32
2023/10/09 04:34:28;;;;;;;;;;;14.70;99.90;;;;;;5083693;28;20004;-32
2023/10/09 04:37:00;;;;;;;;;;;14.70;99.90;;;;;;5093314;28;19950;-33
2023/10/09 04:39:37;;;;;;;;;;;14.70;99.90;;;;;;5093216;28;20416;-33
2023/10/09 04:42:26;;;;;;;;;;;14.80;99.90;;;;;;5087600;28;19953;-33
2023/10/09 04:45:18;;;;;;;;;;;14.80;99.90;;;;;;5084808;28;19955;-32
2023/10/09 04:50:45;;;;;;;;;;;14.80;99.90;;;;;;5089545;28;19944;-32
2023/10/09 04:53:24;;;;;;;;;;;14.90;99.90;;;;;;5076439;28;20456;-32
2023/10/09 04:56:04;;;;;;;;;;;14.90;99.90;;;;;;5086682;28;19947;-31
2023/10/09 04:58:33;;;;;;;;;;;15.00;99.90;;;;;;5091367;28;20413;-33
2023/10/09 05:01:12;;;;;;;;;;;15.00;99.90;;;;;;5079992;28;20399;-32
2023/10/09 05:03:45;;;;;;;;;;;15.00;99.90;;;;;;5087374;28;20000;-31
2023/10/09 05:06:21;;;;;;;;;;;15.00;99.90;;;;;;5091690;28;20067;-31
2023/10/09 05:08:49;;;;;;;;;;;15.10;99.90;;;;;;5093140;28;20040;-31
2023/10/09 05:11:34;;;;;;;;;;;15.10;99.90;;;;;;5093157;28;19944;-32
2023/10/09 05:14:11;;;;;;;;;;;15.10;99.90;;;;;;5090555;28;20502;-31
2023/10/09 05:16:44;;;;;;;;;;;15.10;99.90;;;;;;5092898;28;20041;-32
2023/10/09 05:19:28;;;;;;;;;;;15.10;99.90;;;;;;5092896;28;19944;-31
2023/10/09 05:21:58;;;;;;;;;;;15.20;99.90;;;;;;5092478;28;20321;-31
2023/10/09 05:24:28;;;;;;;;;;;15.30;99.90;;;;;;5091095;28;19951;-30
2023/10/09 05:27:17;;;;;;;;;;;15.30;99.90;;;;;;5092792;28;19983;-31
2023/10/09 05:29:59;;;;;;;;;;;15.30;99.90;;;;;;5092597;28;19950;-30
2023/10/09 05:32:29;;;;;;;;;;;15.40;99.90;;;;;;5089925;28;20403;-30
2023/10/09 05:35:15;;;;;;;;;;;15.40;99.90;;;;;;5091581;28;19996;-31
2023/10/09 05:37:43;;;;;;;;;;;15.40;99.90;;;;;;5092513;28;19948;-31
2023/10/09 05:40:23;;;;;;;;;;;15.40;99.90;;;;;;5084423;28;22057;-32
2023/10/09 05:42:59;;;;;;;;;;;15.50;99.90;;;;;;5079956;28;19996;-30
2023/10/09 05:54:11;;;;;;;;;;;15.60;99.90;;;;;;5087061;28;20297;-30
2023/10/09 06:04:49;;;;;;;;;;;15.70;99.90;;;;;;5117911;28;20445;-30
2023/10/09 06:07:23;;;;;;;;;;;15.70;99.90;;;;;;5071646;28;19941;-30
2023/10/09 06:09:52;;;;;;;;;;;15.70;99.90;;;;;;5074466;28;20035;-31
2023/10/09 06:15:51;;;;;;;;;;;15.70;99.90;;;;;;5162818;27;20348;-30
2023/10/09 06:18:25;;;;;;;;;;;15.70;99.90;;;;;;5138158;27;19946;-32
2023/10/09 06:21:10;;;;;;;;;;;15.70;99.90;;;;;;5141750;27;19947;-30
2023/10/09 06:24:01;;;;;;;;;;;15.70;99.90;;;;;;5132419;27;19943;-29
2023/10/09 06:26:32;;;;;;;;;;;15.70;99.90;;;;;;5129819;28;19945;-30
2023/10/09 06:32:16;;;;;;;;;;;15.80;99.90;;;;;;5164345;27;19951;-31
2023/10/09 06:34:44;;;;;;;;;;;15.80;99.90;;;;;;5129670;27;20436;-30
2023/10/09 06:37:34;;;;;;;;;;;15.80;99.90;;;;;;5130898;27;19944;-32
2023/10/09 06:41:01;;;;;;;;;;;15.80;99.90;;;;;;5128808;28;19965;-29
2023/10/09 06:42:56;;;;;;;;;;;15.80;99.90;;;;;;5128854;28;19951;-30
2023/10/09 06:45:43;;;;;;;;;;;15.90;99.90;;;;;;5129240;28;19942;-30
2023/10/09 06:51:03;;;;;;;;;;;16.00;99.90;;;;;;5128367;28;20031;-29
2023/10/09 06:53:58;;;;;;;;;;;16.00;99.90;;;;;;5129203;28;19965;-30
2023/10/09 06:56:26;;;;;;;;;;;16.00;99.90;;;;;;5130333;28;19941;-31
2023/10/09 06:58:54;;;;;;;;;;;16.00;99.90;;;;;;5128732;28;19942;-30
2023/10/09 07:01:28;;;;;;;;;;;16.00;99.90;;;;;;5130013;28;20277;-29
2023/10/09 07:04:10;;;;;;;;;;;16.00;99.90;;;;;;5130126;28;19945;-30
2023/10/09 07:06:48;;;;;;;;;;;16.10;99.90;;;;;;5128755;28;19945;-32
2023/10/09 07:09:19;;;;;;;;;;;16.00;99.90;;;;;;5129350;28;20290;-30
2023/10/09 07:17:21;;;;;;;;;;;16.10;99.90;;;;;;5128605;28;19947;-29
2023/10/09 07:22:39;;;;;;;;;;;16.10;99.90;;;;;;5117741;27;19992;-30
2023/10/09 07:25:14;;;;;;;;;;;16.20;99.90;;;;;;5145463;27;19943;-32
2023/10/09 07:27:44;;;;;;;;;;;16.20;99.90;;;;;;5152632;27;19949;-32
2023/10/09 07:30:35;;;;;;;;;;;16.20;99.90;;;;;;5136476;27;19944;-29
2023/10/09 07:33:16;;;;;;;;;;;16.20;99.90;;;;;;5134934;27;20048;-30
2023/10/09 07:35:47;;;;;;;;;;;16.20;99.90;;;;;;5135304;27;19966;-30
2023/10/09 07:38:19;;;;;;;;;;;16.20;99.90;;;;;;5135322;27;19949;-30
2023/10/09 07:40:55;;;;;;;;;;;16.20;99.90;;;;;;5135347;27;19949;-30
2023/10/09 07:43:26;;;;;;;;;;;16.20;99.90;;;;;;5135350;27;20034;-30
2023/10/09 07:48:52;;;;;;;;;;;16.30;99.90;;;;;;5131210;27;19948;-32
2023/10/09 07:51:19;;;;;;;;;;;16.30;99.90;;;;;;5164533;27;19943;-33
2023/10/09 07:53:49;;;;;;;;;;;16.30;99.90;;;;;;5131129;28;19951;-33
2023/10/09 07:56:20;;;;;;;;;;;16.40;99.90;;;;;;5130768;28;19945;-31
2023/10/09 07:58:47;;;;;;;;;;;16.40;99.90;;;;;;5130190;28;19983;-31
2023/10/09 08:01:22;;;;;;;;;;;16.40;99.90;;;;;;5129876;28;20323;-32
2023/10/09 08:03:57;;;;;;;;;;;16.40;99.90;;;;;;5129912;28;20440;-31
2023/10/09 08:06:38;;;;;;;;;;;16.50;99.90;;;;;;5130646;27;19941;-31
2023/10/09 08:09:45;;;;;;;;;;;16.50;99.90;;;;;;5129892;28;19949;-31
2023/10/09 08:12:39;;;;;;;;;;;16.50;99.90;;;;;;5129302;28;20412;-31
2023/10/09 08:15:20;;;;;;;;;;;16.60;99.90;;;;;;5129381;28;20391;-31
2023/10/09 08:17:50;;;;;;;;;;;16.60;99.90;;;;;;5129575;28;20002;-31
2023/10/09 08:20:24;;;;;;;;;;;16.60;99.90;;;;;;5130490;28;20025;-31
2023/10/09 08:22:52;;;;;;;;;;;16.60;99.90;;;;;;5129374;28;20002;-31
2023/10/09 08:25:27;;;;;;;;;;;16.70;99.90;;;;;;5129339;28;19948;-31
2023/10/09 08:27:58;;;;;;;;;;;16.70;99.90;;;;;;5129026;28;19969;-32
2023/10/09 08:30:48;;;;;;;;;;;16.70;99.90;;;;;;5130571;27;19986;-31
2023/10/09 08:36:04;;;;;;;;;;;16.70;99.90;;;;;;5129252;28;19946;-31
2023/10/09 08:38:34;;;;;;;;;;;16.70;99.90;;;;;;5129300;28;19955;-31
2023/10/09 08:41:22;;;;;;;;;;;16.80;99.90;;;;;;5130161;28;19955;-31
2023/10/09 08:43:51;;;;;;;;;;;16.80;99.90;;;;;;5163579;27;20384;-31
2023/10/09 08:46:20;;;;;;;;;;;16.80;99.90;;;;;;5129022;28;19946;-32
2023/10/09 08:48:47;;;;;;;;;;;16.80;99.90;;;;;;5128488;28;20008;-31
2023/10/09 08:51:16;;;;;;;;;;;16.80;99.90;;;;;;5163577;27;19955;-31
2023/10/09 08:53:45;;;;;;;;;;;16.80;99.90;;;;;;5129939;28;19948;-31
2023/10/09 08:56:14;;;;;;;;;;;16.80;99.90;;;;;;5128643;28;19997;-32
2023/10/09 08:58:41;;;;;;;;;;;16.80;99.90;;;;;;5123241;28;20401;-32
2023/10/09 09:01:08;;;;;;;;;;;16.80;99.90;;;;;;5115891;28;19953;-31
2023/10/09 09:03:43;;;;;;;;;;;16.80;99.90;;;;;;5116088;28;19948;-32
2023/10/09 09:06:10;;;;;;;;;;;16.80;99.90;;;;;;5149192;27;20032;-32
2023/10/09 09:08:38;;;;;;;;;;;16.80;99.90;;;;;;5115859;28;19972;-32
2023/10/09 09:11:12;;;;;;;;;;;16.80;99.90;;;;;;5115617;28;20565;-31
2023/10/09 09:13:42;;;;;;;;;;;16.80;99.90;;;;;;5149261;27;19945;-31
2023/10/09 09:16:16;;;;;;;;;;;16.90;99.90;;;;;;5114660;28;20379;-32
2023/10/09 09:18:57;;;;;;;;;;;16.90;99.90;;;;;;5114781;28;19941;-33
2023/10/09 09:21:23;;;;;;;;;;;16.80;99.90;;;;;;5115737;28;20249;-29
2023/10/09 09:24:00;;;;;;;;;;;16.90;99.90;;;;;;5114500;28;19992;-32
2023/10/09 09:26:37;;;;;;;;;;;16.90;99.90;;;;;;5115453;28;19939;-33
2023/10/09 09:29:08;;;;;;;;;;;16.90;99.90;;;;;;5148599;27;20016;-32
2023/10/09 09:31:38;;;;;;;;;;;16.90;99.90;;;;;;5115583;28;20291;-31
2023/10/09 09:34:12;;;;;;;;;;;16.90;99.90;;;;;;5115288;28;19949;-33
2023/10/09 09:36:53;;;;;;;;;;;16.90;99.90;;;;;;5115387;28;19988;-32
2023/10/09 09:39:26;;;;;;;;;;;16.90;99.90;;;;;;5114232;28;19943;-32
2023/10/09 09:41:53;;;;;;;;;;;16.90;99.90;;;;;;5114444;28;19942;-32
2023/10/09 09:44:21;;;;;;;;;;;16.90;99.90;;;;;;5114225;28;19944;-32
2023/10/09 09:46:48;;;;;;;;;;;16.90;99.90;;;;;;5115100;28;19968;-33
2023/10/09 09:49:21;;;;;;;;;;;17.00;99.90;;;;;;5113873;28;20034;-32
2023/10/09 09:51:48;;;;;;;;;;;17.00;99.90;;;;;;5148445;27;19948;-32
2023/10/09 09:54:15;;;;;;;;;;;17.00;99.90;;;;;;5114222;28;19944;-32
2023/10/09 09:56:44;;;;;;;;;;;17.10;99.90;;;;;;5114951;28;19943;-32
2023/10/09 09:59:13;;;;;;;;;;;17.10;99.90;;;;;;5114810;28;20363;-31
2023/10/09 10:01:41;;;;;;;;;;;17.10;99.90;;;;;;5113956;28;19945;-32
2023/10/09 10:04:11;;;;;;;;;;;17.10;99.90;;;;;;5114775;28;20038;-31
2023/10/09 10:06:40;;;;;;;;;;;17.20;99.90;;;;;;5114778;28;19940;-31
2023/10/09 10:09:07;;;;;;;;;;;17.20;99.90;;;;;;5114753;28;19962;-32
2023/10/09 10:11:51;;;;;;;;;;;17.20;99.90;;;;;;5113574;28;20406;-33
2023/10/09 10:14:28;;;;;;;;;;;17.30;99.90;;;;;;5114746;28;19943;-31
2023/10/09 10:17:04;;;;;;;;;;;17.40;99.90;;;;;;5114404;28;20446;-31
2023/10/09 10:19:47;;;;;;;;;;;17.50;99.90;;;;;;5113368;28;20306;-32
2023/10/09 10:22:24;;;;;;;;;;;17.50;99.90;;;;;;5114132;28;19945;-31
2023/10/09 10:24:54;;;;;;;;;;;17.50;99.90;;;;;;5113493;28;19995;-32
2023/10/09 10:27:26;;;;;;;;;;;17.60;99.90;;;;;;5114021;28;19947;-32
2023/10/09 10:30:12;;;;;;;;;;;17.60;99.90;;;;;;5148113;27;19948;-32
2023/10/09 10:32:53;;;;;;;;;;;17.60;99.90;;;;;;5114252;28;20333;-31
2023/10/09 10:35:32;;;;;;;;;;;17.60;99.90;;;;;;5113483;28;19989;-32
2023/10/09 10:38:11;;;;;;;;;;;17.60;99.90;;;;;;5112950;28;19942;-32
2023/10/09 10:40:46;;;;;;;;;;;17.60;99.90;;;;;;5147807;27;19955;-32
2023/10/09 10:43:31;;;;;;;;;;;17.60;99.90;;;;;;5147537;27;19947;-32
2023/10/09 10:46:01;;;;;;;;;;;17.60;99.90;;;;;;5114020;28;20298;-31
2023/10/09 10:48:37;;;;;;;;;;;17.60;99.90;;;;;;5114046;28;20408;-31
2023/10/09 10:51:04;;;;;;;;;;;17.60;99.90;;;;;;5114059;28;19998;-32
2023/10/09 10:53:34;;;;;;;;;;;17.60;99.90;;;;;;5112991;28;19947;-31
2023/10/09 10:56:17;;;;;;;;;;;17.60;99.90;;;;;;5112854;28;19943;-31
2023/10/09 10:59:11;;;;;;;;;;;17.60;99.90;;;;;;5147116;27;19950;-31
2023/10/09 11:01:52;;;;;;;;;;;17.70;99.90;;;;;;5112739;28;20300;-31
2023/10/09 11:04:24;;;;;;;;;;;17.70;99.90;;;;;;5113787;28;19944;-32
2023/10/09 11:06:51;;;;;;;;;;;17.70;99.90;;;;;;5112579;28;20032;-31
2023/10/09 11:09:21;;;;;;;;;;;17.70;99.90;;;;;;5113292;28;20011;-30
2023/10/09 11:11:50;;;;;;;;;;;17.70;99.90;;;;;;5112202;28;19997;-31
2023/10/09 11:14:23;;;;;;;;;;;17.70;99.90;;;;;;5113582;28;20462;-31
2023/10/09 11:16:50;;;;;;;;;;;17.70;99.90;;;;;;5113408;28;19948;-31
2023/10/09 11:19:31;;;;;;;;;;;17.70;99.90;;;;;;5113294;28;19941;-31
2023/10/09 11:24:43;;;;;;;;;;;17.70;99.90;;;;;;5111976;28;19952;-32
2023/10/09 11:27:18;;;;;;;;;;;17.70;99.90;;;;;;5113200;28;19947;-34
2023/10/09 11:30:05;;;;;;;;;;;17.80;99.90;;;;;;5113246;28;19967;-32
2023/10/09 11:32:32;;;;;;;;;;;17.80;99.90;;;;;;5112153;28;20002;-32
2023/10/09 11:35:14;;;;;;;;;;;17.90;99.90;;;;;;5113480;28;19947;-32
2023/10/09 11:37:42;;;;;;;;;;;17.90;99.90;;;;;;5113173;28;20005;-31
2023/10/09 11:40:30;;;;;;;;;;;17.90;99.90;;;;;;5112150;28;19945;-32
2023/10/09 11:42:59;;;;;;;;;;;17.90;99.90;;;;;;5146246;27;19992;-32
2023/10/09 11:45:29;;;;;;;;;;;18.00;99.90;;;;;;5146581;27;20006;-31
2023/10/09 11:47:57;;;;;;;;;;;18.00;99.90;;;;;;5113025;28;20007;-31
2023/10/09 11:50:42;;;;;;;;;;;18.10;99.90;;;;;;5113072;28;19950;-31
2023/10/09 11:53:33;;;;;;;;;;;18.10;99.90;;;;;;5113116;28;19961;-32
2023/10/09 11:56:00;;;;;;;;;;;18.20;99.90;;;;;;5113148;28;19937;-33
2023/10/09 11:58:26;;;;;;;;;;;18.20;99.90;;;;;;5112144;28;19943;-32
2023/10/09 12:00:59;;;;;;;;;;;18.20;99.90;;;;;;5111882;28;20002;-33
2023/10/09 12:03:28;;;;;;;;;;;18.20;99.90;;;;;;5113060;28;19944;-32
2023/10/09 12:05:56;;;;;;;;;;;18.10;99.90;;;;;;5111742;28;19963;-32
2023/10/09 12:08:26;;;;;;;;;;;18.10;99.90;;;;;;5111637;28;19961;-32
2023/10/09 12:10:54;;;;;;;;;;;18.10;99.90;;;;;;5112906;28;20028;-32
2023/10/09 12:13:22;;;;;;;;;;;18.10;99.90;;;;;;5112903;28;19943;-33
2023/10/09 12:15:49;;;;;;;;;;;18.10;99.90;;;;;;5111768;28;19942;-32
2023/10/09 12:18:18;;;;;;;;;;;18.00;99.90;;;;;;5111528;28;19954;-33
2023/10/09 12:20:50;;;;;;;;;;;18.00;99.90;;;;;;5111597;28;19943;-31
2023/10/09 12:23:17;;;;;;;;;;;18.00;99.90;;;;;;5111967;28;19949;-32
2023/10/09 12:25:44;;;;;;;;;;;18.00;99.90;;;;;;5113061;28;19947;-32
2023/10/09 12:28:12;;;;;;;;;;;18.00;99.90;;;;;;5112588;28;19968;-32
2023/10/09 12:30:39;;;;;;;;;;;18.00;99.90;;;;;;5111783;28;19944;-32
2023/10/09 12:33:09;;;;;;;;;;;18.10;99.90;;;;;;5111613;28;19985;-32
2023/10/09 12:35:41;;;;;;;;;;;18.30;99.90;;;;;;5116245;28;19948;-32
2023/10/09 12:38:10;;;;;;;;;;;18.40;99.90;;;;;;5116497;28;20300;-31
2023/10/09 12:40:36;;;;;;;;;;;18.60;99.90;;;;;;5116499;28;19952;-32
2023/10/09 12:43:03;;;;;;;;;;;18.70;99.90;;;;;;5115358;28;19947;-32
2023/10/09 12:45:32;;;;;;;;;;;18.80;99.90;;;;;;5116691;28;20291;-32
2023/10/09 12:47:59;;;;;;;;;;;18.90;99.90;;;;;;5116410;28;19967;-31
2023/10/09 12:50:28;;;;;;;;;;;18.90;99.90;;;;;;5116007;28;20321;-32
2023/10/09 12:53:02;;;;;;;;;;;19.00;99.90;;;;;;5116363;28;19948;-32
2023/10/09 12:55:32;;;;;;;;;;;18.90;99.90;;;;;;5116364;28;19941;-32
2023/10/09 12:58:03;;;;;;;;;;;19.00;99.90;;;;;;5115108;28;20050;-32
2023/10/09 13:00:32;;;;;;;;;;;18.90;99.90;;;;;;5115005;28;19943;-33
2023/10/09 13:03:00;;;;;;;;;;;19.00;99.90;;;;;;5114907;28;19944;-32
2023/10/09 13:05:27;;;;;;;;;;;18.90;99.90;;;;;;5116011;28;20289;-32
2023/10/09 13:07:55;;;;;;;;;;;18.90;99.90;;;;;;5116070;28;19952;-32
2023/10/09 13:10:24;;;;;;;;;;;18.90;99.90;;;;;;5116024;28;19939;-31
2023/10/09 13:12:55;;;;;;;;;;;18.90;99.90;;;;;;5114776;28;20011;-31
2023/10/09 13:15:21;;;;;;;;;;;18.90;99.90;;;;;;5115736;28;20408;-32
2023/10/09 13:17:48;;;;;;;;;;;18.90;99.90;;;;;;5114744;28;20005;-31
2023/10/09 13:20:16;;;;;;;;;;;18.90;99.90;;;;;;5149152;27;19951;-31
2023/10/09 13:22:42;;;;;;;;;;;18.80;99.90;;;;;;5115508;28;19951;-32
2023/10/09 13:25:16;;;;;;;;;;;18.80;99.90;;;;;;5115661;28;19947;-32
2023/10/09 13:27:50;;;;;;;;;;;18.80;99.90;;;;;;5114477;28;20041;-32
2023/10/09 13:30:21;;;;;;;;;;;18.70;99.90;;;;;;5114045;28;19962;-32
2023/10/09 13:32:49;;;;;;;;;;;18.70;99.90;;;;;;5115650;28;19941;-33
2023/10/09 13:35:19;;;;;;;;;;;18.70;99.90;;;;;;5115284;28;20404;-32
2023/10/09 13:37:53;;;;;;;;;;;18.70;99.90;;;;;;5115700;28;19946;-33
2023/10/09 13:40:26;;;;;;;;;;;18.80;99.90;;;;;;5115344;28;19939;-32
2023/10/09 13:42:58;;;;;;;;;;;18.80;99.90;;;;;;5115169;28;19948;-32
2023/10/09 13:45:28;;;;;;;;;;;18.80;99.90;;;;;;5115202;28;19971;-32
2023/10/09 13:47:55;;;;;;;;;;;18.80;99.90;;;;;;5115104;28;19970;-32
2023/10/09 13:50:21;;;;;;;;;;;18.80;99.90;;;;;;5115013;28;19968;-32
2023/10/09 13:52:48;;;;;;;;;;;18.80;99.90;;;;;;5114081;28;20053;-32
2023/10/09 13:55:16;;;;;;;;;;;18.90;99.90;;;;;;5114872;28;20296;-32
2023/10/09 13:57:45;;;;;;;;;;;18.90;99.90;;;;;;5114099;28;19992;-32
2023/10/09 14:00:17;;;;;;;;;;;18.90;99.90;;;;;;5114051;28;19953;-31
2023/10/09 14:02:46;;;;;;;;;;;18.90;99.90;;;;;;5113883;28;19981;-33
2023/10/09 14:05:13;;;;;;;;;;;18.80;99.90;;;;;;5114892;28;19946;-32
2023/10/09 14:07:45;;;;;;;;;;;18.80;99.90;;;;;;5113669;28;19945;-32
2023/10/09 14:10:18;;;;;;;;;;;18.80;99.90;;;;;;5113422;28;19974;-33
2023/10/09 14:12:44;;;;;;;;;;;18.70;99.90;;;;;;5113526;28;19947;-32
2023/10/09 14:15:17;;;;;;;;;;;18.70;99.90;;;;;;5113720;28;20364;-32
2023/10/09 14:17:46;;;;;;;;;;;18.70;99.90;;;;;;5113546;28;19945;-33
2023/10/09 14:20:31;;;;;;;;;;;18.70;99.90;;;;;;5114371;28;19947;-32
2023/10/09 14:23:05;;;;;;;;;;;18.70;99.90;;;;;;5113623;28;19952;-32
2023/10/09 14:25:33;;;;;;;;;;;18.70;99.90;;;;;;5113405;28;19942;-32
2023/10/09 14:27:59;;;;;;;;;;;18.60;99.90;;;;;;5114142;28;20413;-32
2023/10/09 14:30:32;;;;;;;;;;;18.60;99.90;;;;;;5113029;28;20007;-33
2023/10/09 14:33:02;;;;;;;;;;;18.60;99.90;;;;;;5114091;28;19939;-32
2023/10/09 14:35:30;;;;;;;;;;;18.60;99.90;;;;;;5113355;28;19947;-32
2023/10/09 14:37:57;;;;;;;;;;;18.60;99.90;;;;;;5114608;28;19939;-33
2023/10/09 14:40:29;;;;;;;;;;;18.50;99.90;;;;;;5112999;28;19951;-32
2023/10/09 14:42:57;;;;;;;;;;;18.50;99.90;;;;;;5114646;28;20039;-33
2023/10/09 14:45:25;;;;;;;;;;;18.50;99.90;;;;;;5113949;28;19980;-32
2023/10/09 14:47:53;;;;;;;;;;;18.50;99.90;;;;;;5112635;28;20058;-32
2023/10/09 14:50:22;;;;;;;;;;;18.50;99.90;;;;;;5112725;28;19965;-33
2023/10/09 14:52:50;;;;;;;;;;;18.40;99.90;;;;;;5112986;28;20400;-33
2023/10/09 14:55:20;;;;;;;;;;;18.40;99.90;;;;;;5112767;28;20032;-33
2023/10/09 14:57:49;;;;;;;;;;;18.40;99.90;;;;;;5113197;28;19996;-34
2023/10/09 15:00:22;;;;;;;;;;;18.40;99.90;;;;;;5113633;28;19945;-33
2023/10/09 15:02:50;;;;;;;;;;;18.30;99.90;;;;;;5112985;28;19941;-33
2023/10/09 15:05:17;;;;;;;;;;;18.30;99.90;;;;;;5112713;28;19943;-34
2023/10/09 15:07:45;;;;;;;;;;;18.30;99.90;;;;;;5113684;28;19998;-33
2023/10/09 15:10:15;;;;;;;;;;;18.30;99.90;;;;;;5112471;28;19966;-33
2023/10/09 15:12:42;;;;;;;;;;;18.30;99.90;;;;;;5112470;28;19945;-33
2023/10/09 15:15:13;;;;;;;;;;;18.30;99.90;;;;;;5113428;28;19937;-32
2023/10/09 15:17:40;;;;;;;;;;;18.20;99.90;;;;;;5113562;28;19997;-32
2023/10/09 15:20:13;;;;;;;;;;;18.20;99.90;;;;;;5112444;28;19945;-33
2023/10/09 15:22:40;;;;;;;;;;;18.20;99.90;;;;;;5113464;28;19984;-32
2023/10/09 15:25:09;;;;;;;;;;;18.20;99.90;;;;;;5112384;28;20476;-33
2023/10/09 15:27:38;;;;;;;;;;;18.10;99.90;;;;;;5112149;28;19948;-32
2023/10/09 15:30:08;;;;;;;;;;;18.10;99.90;;;;;;5112213;28;20019;-32
2023/10/09 15:32:34;;;;;;;;;;;18.10;99.90;;;;;;5095649;28;19948;-33